createdAt,value
2023-01-23T00:01:34.953Z,11.00
2023-01-23T00:04:02.662Z,11.25
2023-01-23T00:06:30.088Z,11.85
2023-01-23T00:08:58.296Z,12.02
2023-01-23T00:11:30.450Z,11.88
2023-01-23T00:16:29.841Z,12.30
2023-01-23T00:18:57.989Z,11.40
2023-01-23T00:21:28.726Z,12.13
2023-01-23T00:23:58.246Z,11.93
2023-01-23T00:26:28.799Z,11.65
2023-01-23T00:28:57.415Z,11.93
2023-01-23T00:31:34.655Z,12.75
2023-01-23T00:34:07.053Z,11.55
2023-01-23T00:36:38.747Z,11.98
2023-01-23T00:39:22.580Z,11.32
2023-01-23T00:41:52.381Z,11.82
2023-01-23T00:44:19.538Z,10.65
2023-01-23T00:46:49.252Z,10.85
2023-01-23T00:49:17.956Z,11.77
2023-01-23T00:51:46.399Z,11.05
2023-01-23T00:54:13.563Z,11.30
2023-01-23T00:56:40.720Z,12.35
2023-01-23T00:59:10.301Z,12.07
2023-01-23T01:01:37.422Z,10.85
2023-01-23T01:04:07.164Z,11.20
2023-01-23T01:06:34.369Z,10.85
2023-01-23T01:09:01.632Z,11.10
2023-01-23T01:11:28.955Z,10.82
2023-01-23T01:13:56.295Z,10.43
2023-01-23T01:16:30.891Z,10.10
2023-01-23T01:18:58.283Z,10.35
2023-01-23T01:21:25.334Z,9.50
2023-01-23T01:23:55.019Z,9.57
2023-01-23T01:26:23.138Z,10.00
2023-01-23T01:28:50.370Z,9.50
2023-01-23T01:31:17.825Z,9.32
2023-01-23T01:33:45.465Z,9.10
2023-01-23T01:36:16.889Z,9.65
2023-01-23T01:38:44.904Z,8.63
2023-01-23T01:41:12.545Z,9.63
2023-01-23T01:43:40.879Z,9.85
2023-01-23T01:46:21.199Z,8.50
2023-01-23T01:49:08.384Z,8.35
2023-01-23T01:51:56.936Z,8.20
2023-01-23T01:54:54.432Z,8.23
2023-01-23T01:57:23.389Z,8.68
2023-01-23T01:59:58.820Z,8.27
2023-01-23T02:02:35.555Z,8.63
2023-01-23T02:05:11.754Z,8.32
2023-01-23T02:07:54.545Z,8.05
2023-01-23T02:10:22.854Z,8.48
2023-01-23T02:12:52.269Z,8.43
2023-01-23T02:15:22.792Z,8.80
2023-01-23T02:17:53.338Z,8.10
2023-01-23T02:20:27.997Z,7.97
2023-01-23T02:23:48.319Z,8.02
2023-01-23T02:26:33.027Z,8.35
2023-01-23T02:29:00.625Z,7.68
2023-01-23T02:31:30.383Z,8.05
2023-01-23T02:34:00.122Z,7.53
2023-01-23T02:36:33.117Z,8.50
2023-01-23T02:39:13.906Z,7.20
2023-01-23T02:41:47.933Z,7.68
2023-01-23T02:44:28.967Z,6.97
2023-01-23T02:47:01.545Z,7.43
2023-01-23T02:49:29.600Z,7.40
2023-01-23T02:51:57.434Z,7.47
2023-01-23T02:54:25.401Z,8.20
2023-01-23T02:56:52.802Z,7.63
2023-01-23T02:59:38.859Z,7.55
2023-01-23T03:02:06.347Z,8.20
2023-01-23T03:04:36.021Z,8.50
2023-01-23T03:07:03.637Z,8.10
2023-01-23T03:09:31.040Z,8.35
2023-01-23T03:11:58.196Z,8.35
2023-01-23T03:14:26.235Z,7.05
2023-01-23T03:16:55.196Z,7.60
2023-01-23T03:19:25.272Z,7.57
2023-01-23T03:21:53.553Z,8.20
2023-01-23T03:24:21.517Z,7.60
2023-01-23T03:26:50.091Z,7.03
2023-01-23T03:29:42.220Z,6.93
2023-01-23T03:32:12.150Z,7.20
2023-01-23T03:34:39.709Z,8.00
2023-01-23T03:37:09.525Z,8.35
2023-01-23T03:39:55.516Z,8.23
2023-01-23T03:42:23.379Z,8.63
2023-01-23T03:44:55.050Z,9.38
2023-01-23T03:47:26.451Z,10.30
2023-01-23T03:49:53.821Z,10.45
2023-01-23T03:52:21.249Z,10.43
2023-01-23T03:54:48.479Z,8.70
2023-01-23T03:57:15.713Z,9.02
2023-01-23T03:59:42.842Z,8.27
2023-01-23T04:02:10.160Z,7.85
2023-01-23T04:04:40.047Z,7.78
2023-01-23T04:07:07.378Z,8.13
2023-01-23T04:09:34.619Z,7.25
2023-01-23T04:12:01.974Z,8.63
2023-01-23T04:14:37.414Z,7.35
2023-01-23T04:17:06.719Z,7.38
2023-01-23T04:19:34.708Z,8.35
2023-01-23T04:22:02.400Z,7.47
2023-01-23T04:24:29.565Z,7.32
2023-01-23T04:26:56.792Z,7.22
2023-01-23T04:29:23.963Z,6.75
2023-01-23T04:31:51.158Z,7.32
2023-01-23T04:34:18.247Z,7.60
2023-01-23T04:36:45.352Z,7.50
2023-01-23T04:39:12.545Z,7.15
2023-01-23T04:41:39.703Z,7.97
2023-01-23T04:44:22.124Z,7.75
2023-01-23T04:49:18.905Z,7.45
2023-01-23T04:51:50.387Z,7.72
2023-01-23T04:54:18.910Z,7.75
2023-01-23T04:56:47.358Z,8.15
2023-01-23T04:59:16.814Z,7.95
2023-01-23T05:01:44.344Z,8.05
2023-01-23T05:04:11.500Z,9.30
2023-01-23T05:06:39.003Z,8.55
2023-01-23T05:09:07.171Z,8.13
2023-01-23T05:11:34.589Z,8.65
2023-01-23T05:14:02.151Z,9.10
2023-01-23T05:16:29.296Z,9.50
2023-01-23T05:18:56.456Z,9.73
2023-01-23T05:21:23.668Z,9.82
2023-01-23T05:23:55.821Z,10.40
2023-01-23T05:26:22.978Z,8.70
2023-01-23T05:28:52.664Z,8.27
2023-01-23T05:31:20.169Z,9.10
2023-01-23T05:33:49.785Z,9.18
2023-01-23T05:36:18.541Z,9.35
2023-01-23T05:38:46.064Z,10.30
2023-01-23T05:41:16.209Z,10.77
2023-01-23T05:43:44.568Z,12.43
2023-01-23T05:46:14.867Z,10.77
2023-01-23T05:48:42.438Z,9.57
2023-01-23T05:51:09.668Z,10.25
2023-01-23T05:53:36.885Z,9.27
2023-01-23T05:56:12.780Z,10.25
2023-01-23T05:58:40.085Z,9.02
2023-01-23T06:01:07.325Z,9.73
2023-01-23T06:03:34.768Z,9.30
2023-01-23T06:06:02.354Z,9.48
2023-01-23T06:08:29.779Z,10.00
2023-01-23T06:11:01.815Z,9.55
2023-01-23T06:13:31.532Z,9.52
2023-01-23T06:15:58.962Z,10.55
2023-01-23T06:18:26.192Z,10.95
2023-01-23T06:21:01.322Z,11.70
2023-01-23T06:23:29.436Z,10.38
2023-01-23T06:26:02.981Z,10.30
2023-01-23T06:28:30.365Z,9.55
2023-01-23T06:31:02.735Z,9.88
2023-01-23T06:33:31.216Z,9.93
2023-01-23T06:36:03.430Z,10.15
2023-01-23T06:40:58.672Z,11.10
2023-01-23T06:43:26.663Z,10.80
2023-01-23T06:45:53.979Z,9.88
2023-01-23T06:48:22.033Z,10.50
2023-01-23T06:50:51.713Z,12.07
2023-01-23T06:53:19.535Z,15.60
2023-01-23T06:55:49.097Z,11.82
2023-01-23T06:58:16.396Z,11.57
2023-01-23T07:00:44.685Z,11.20
2023-01-23T07:03:14.445Z,12.30
2023-01-23T07:05:43.559Z,11.50
2023-01-23T07:08:10.709Z,10.57
2023-01-23T07:10:38.948Z,11.50
2023-01-23T07:13:11.744Z,10.77
2023-01-23T07:15:41.016Z,10.82
2023-01-23T07:18:09.864Z,10.50
2023-01-23T07:20:39.580Z,10.05
2023-01-23T07:23:06.805Z,11.88
2023-01-23T07:25:34.185Z,11.40
2023-01-23T07:28:04.057Z,12.88
2023-01-23T07:30:31.785Z,13.63
2023-01-23T07:32:59.121Z,13.48
2023-01-23T07:35:27.330Z,13.07
2023-01-23T07:37:54.766Z,13.23
2023-01-23T07:40:22.303Z,13.13
2023-01-23T07:42:49.626Z,11.90
2023-01-23T07:45:16.912Z,12.43
2023-01-23T07:47:45.641Z,12.00
2023-01-23T07:50:13.875Z,11.63
2023-01-23T07:52:41.135Z,10.82
2023-01-23T07:55:11.145Z,12.15
2023-01-23T07:57:38.193Z,13.38
2023-01-23T08:00:06.286Z,18.33
2023-01-23T08:02:33.517Z,21.15
2023-01-23T08:05:00.741Z,21.83
2023-01-23T08:07:28.407Z,20.25
2023-01-23T08:09:55.505Z,22.25
2023-01-23T08:12:22.742Z,19.80
2023-01-23T08:14:49.897Z,20.85
2023-01-23T08:17:19.570Z,15.02
2023-01-23T08:19:46.750Z,15.70
2023-01-23T08:22:13.926Z,13.35
2023-01-23T08:24:43.514Z,13.43
2023-01-23T08:27:12.304Z,13.43
2023-01-23T08:29:41.892Z,11.68
2023-01-23T08:32:09.201Z,12.50
2023-01-23T08:34:38.408Z,12.63
2023-01-23T08:37:05.437Z,12.38
2023-01-23T08:39:32.652Z,11.00
2023-01-23T08:41:59.685Z,10.90
2023-01-23T08:44:26.920Z,10.75
2023-01-23T08:46:54.112Z,11.10
2023-01-23T08:49:21.264Z,10.70
2023-01-23T08:51:50.645Z,11.77
2023-01-23T08:54:17.805Z,12.15
2023-01-23T08:56:44.941Z,12.75
2023-01-23T08:59:12.014Z,12.27
2023-01-23T09:01:39.274Z,13.88
2023-01-23T09:04:06.798Z,13.82
2023-01-23T09:06:34.037Z,15.90
2023-01-23T09:09:01.132Z,16.30
2023-01-23T09:11:30.832Z,16.63
2023-01-23T09:14:00.381Z,16.65
2023-01-23T09:16:27.745Z,14.77
2023-01-23T09:18:57.795Z,16.50
2023-01-23T09:21:24.992Z,13.88
2023-01-23T09:23:52.038Z,15.32
2023-01-23T09:26:20.045Z,14.63
2023-01-23T09:28:47.390Z,16.00
2023-01-23T09:31:15.006Z,18.23
2023-01-23T09:33:42.865Z,17.30
2023-01-23T09:36:10.811Z,20.63
2023-01-23T09:38:38.120Z,18.92
2023-01-23T09:41:23.527Z,16.88
2023-01-23T09:43:57.996Z,17.67
2023-01-23T09:46:36.752Z,16.52
2023-01-23T09:49:58.629Z,16.65
2023-01-23T09:52:42.105Z,14.40
2023-01-23T09:55:33.348Z,14.95
2023-01-23T09:58:03.847Z,14.65
2023-01-23T10:00:33.794Z,14.68
2023-01-23T10:03:12.187Z,15.48
2023-01-23T10:05:53.335Z,14.68
2023-01-23T10:08:35.379Z,15.60
2023-01-23T10:11:36.125Z,15.40
2023-01-23T10:14:30.772Z,14.82
2023-01-23T10:17:45.129Z,15.48
2023-01-23T10:20:20.135Z,16.35
2023-01-23T10:23:10.963Z,16.80
2023-01-23T10:25:41.103Z,15.05
2023-01-23T10:28:39.409Z,15.30
2023-01-23T10:31:48.440Z,15.55
2023-01-23T10:34:44.276Z,15.85
2023-01-23T10:37:24.410Z,15.13
2023-01-23T10:40:08.179Z,15.18
2023-01-23T10:42:36.765Z,15.75
2023-01-23T10:45:05.230Z,16.25
2023-01-23T10:47:42.985Z,16.83
2023-01-23T10:50:11.725Z,16.02
2023-01-23T10:52:44.972Z,15.20
2023-01-23T10:55:23.858Z,14.63
2023-01-23T10:57:57.047Z,14.52
2023-01-23T11:00:45.732Z,13.35
2023-01-23T11:03:21.913Z,15.50
2023-01-23T11:06:25.999Z,16.25
2023-01-23T11:09:02.632Z,19.23
2023-01-23T11:11:32.493Z,18.42
2023-01-23T11:14:14.019Z,16.52
2023-01-23T11:16:43.504Z,16.57
2023-01-23T11:19:11.675Z,16.10
2023-01-23T11:21:55.959Z,16.13
2023-01-23T11:24:38.631Z,16.20
2023-01-23T11:27:26.592Z,18.30
2023-01-23T11:30:08.734Z,20.13
2023-01-23T11:33:01.963Z,17.75
2023-01-23T11:35:48.470Z,17.55
2023-01-23T11:38:30.281Z,16.90
2023-01-23T11:40:58.348Z,16.35
2023-01-23T11:43:25.639Z,16.95
2023-01-23T11:46:41.791Z,18.50
2023-01-23T11:49:27.242Z,18.17
2023-01-23T11:52:27.550Z,20.02
2023-01-23T11:55:03.564Z,19.73
2023-01-23T11:58:14.716Z,19.70
2023-01-23T12:01:09.313Z,18.50
2023-01-23T12:04:22.883Z,18.05
2023-01-23T12:07:18.347Z,18.10
2023-01-23T12:09:57.236Z,16.50
2023-01-23T12:13:24.209Z,18.33
2023-01-23T12:16:37.162Z,19.98
2023-01-23T12:22:10.239Z,18.58
2023-01-23T12:25:01.579Z,20.17
2023-01-23T12:27:44.362Z,21.48
2023-01-23T12:30:12.975Z,20.30
2023-01-23T12:32:57.128Z,20.60
2023-01-23T12:36:06.046Z,25.17
2023-01-23T12:38:50.566Z,20.65
2023-01-23T12:41:48.670Z,19.27
2023-01-23T12:44:38.266Z,20.70
2023-01-23T12:47:25.429Z,22.75
2023-01-23T12:50:20.354Z,19.95
2023-01-23T12:53:12.376Z,18.73
2023-01-23T12:56:34.480Z,19.25
2023-01-23T12:59:28.867Z,18.02
2023-01-23T13:02:29.243Z,19.52
2023-01-23T13:05:28.605Z,19.67
2023-01-23T13:08:14.842Z,17.23
2023-01-23T13:11:23.510Z,18.85
2023-01-23T13:13:53.151Z,17.85
2023-01-23T13:16:23.762Z,17.92
2023-01-23T13:19:13.665Z,18.23
2023-01-23T13:22:02.839Z,16.30
2023-01-23T13:25:13.401Z,17.55
2023-01-23T13:28:22.035Z,19.40
2023-01-23T13:31:04.194Z,18.42
2023-01-23T13:33:34.145Z,16.95
2023-01-23T13:36:33.262Z,16.17
2023-01-23T13:39:25.209Z,16.15
2023-01-23T13:42:12.870Z,15.80
2023-01-23T13:45:29.268Z,16.55
2023-01-23T14:20:19.457Z,20.77
2023-01-23T14:22:46.737Z,23.00
2023-01-23T14:25:18.546Z,24.55
2023-01-23T14:27:54.453Z,23.70
2023-01-23T14:30:28.281Z,30.90
2023-01-23T14:32:56.384Z,32.88
2023-01-23T14:35:34.074Z,27.17
2023-01-23T14:38:07.063Z,25.90
2023-01-23T14:40:49.302Z,24.83
2023-01-23T14:43:27.829Z,21.50
2023-01-23T14:46:12.572Z,20.45
2023-01-23T14:48:44.022Z,20.73
2023-01-23T14:51:28.757Z,25.40
2023-01-23T14:54:10.005Z,24.90
2023-01-23T14:56:39.767Z,18.85
2023-01-23T14:59:42.091Z,16.92
2023-01-23T15:02:34.353Z,18.45
2023-01-23T15:05:14.332Z,16.70
2023-01-23T15:08:04.266Z,17.48
2023-01-23T15:10:43.912Z,17.67
2023-01-23T15:13:52.827Z,19.42
2023-01-23T15:16:35.081Z,26.67
2023-01-23T15:19:21.473Z,26.02
2023-01-23T15:21:49.469Z,27.40
2023-01-23T15:24:19.447Z,25.02
2023-01-23T15:27:37.280Z,25.10
2023-01-23T15:30:49.213Z,18.50
2023-01-23T15:33:40.298Z,20.00
2023-01-23T15:36:20.209Z,20.55
2023-01-23T15:38:47.741Z,19.50
2023-01-23T15:41:17.264Z,19.00
2023-01-23T15:43:46.756Z,18.13
2023-01-23T15:46:14.179Z,19.45
2023-01-23T15:48:41.292Z,20.65
2023-01-23T15:51:12.012Z,18.75
2023-01-23T15:53:39.345Z,18.08
2023-01-23T15:56:29.727Z,20.63
2023-01-23T15:58:56.928Z,22.90
2023-01-23T16:01:24.091Z,23.80
2023-01-23T16:03:53.680Z,24.48
2023-01-23T16:06:24.379Z,23.10
2023-01-23T16:09:00.948Z,26.02
2023-01-23T16:11:35.565Z,25.92
2023-01-23T16:14:03.117Z,21.92
2023-01-23T16:16:30.289Z,21.95
2023-01-23T16:18:57.498Z,21.25
2023-01-23T16:21:30.463Z,21.13
2023-01-23T16:23:59.001Z,21.90
2023-01-23T16:26:28.327Z,22.95
2023-01-23T16:29:12.116Z,23.70
2023-01-23T16:31:40.663Z,24.35
2023-01-23T16:34:07.808Z,25.70
2023-01-23T16:36:34.891Z,24.15
2023-01-23T16:39:01.869Z,23.40
2023-01-23T16:41:47.653Z,23.30
2023-01-23T16:44:33.390Z,20.88
2023-01-23T16:47:18.935Z,21.52
2023-01-23T16:50:04.810Z,22.77
2023-01-23T16:53:10.948Z,23.35
2023-01-23T16:55:59.023Z,22.10
2023-01-23T16:58:44.579Z,22.30
2023-01-23T17:01:33.600Z,22.88
2023-01-23T17:04:21.495Z,23.25
2023-01-23T17:07:17.622Z,22.67
2023-01-23T17:10:03.571Z,23.00
2023-01-23T17:12:56.018Z,26.38
2023-01-23T17:15:42.228Z,25.05
2023-01-23T17:18:33.447Z,25.40
2023-01-23T17:21:23.841Z,30.90
2023-01-23T17:24:17.929Z,24.17
2023-01-23T17:27:04.027Z,27.20
2023-01-23T17:29:49.466Z,25.52
2023-01-23T17:32:38.046Z,24.63
2023-01-23T17:35:34.560Z,23.02
2023-01-23T17:38:35.162Z,24.88
2023-01-23T17:41:20.694Z,25.33
2023-01-23T17:44:06.444Z,25.30
2023-01-23T17:46:54.674Z,26.23
2023-01-23T17:49:39.720Z,23.45
2023-01-23T17:52:26.727Z,22.25
2023-01-23T17:55:23.975Z,24.52
2023-01-23T17:58:10.156Z,25.75
2023-01-23T18:00:56.240Z,25.02
2023-01-23T18:03:41.914Z,24.85
2023-01-23T18:06:29.664Z,24.10
2023-01-23T18:09:15.850Z,24.63
2023-01-23T18:12:04.883Z,26.80
2023-01-23T18:15:06.401Z,24.13
2023-01-23T18:18:34.594Z,25.45
2023-01-23T18:21:21.186Z,24.70
2023-01-23T18:24:22.274Z,24.58
2023-01-23T18:27:30.225Z,24.90
2023-01-23T18:30:39.447Z,25.88
2023-01-23T18:33:25.862Z,24.95
2023-01-23T18:36:41.835Z,24.20
2023-01-23T18:40:01.886Z,23.83
2023-01-23T18:43:24.352Z,24.75
2023-01-23T18:46:20.355Z,25.30
2023-01-23T18:49:06.609Z,24.70
2023-01-23T18:52:12.792Z,23.65
2023-01-23T18:55:06.338Z,24.42
2023-01-23T18:58:10.051Z,21.17
2023-01-23T19:01:39.456Z,21.77
2023-01-23T19:04:38.682Z,20.73
2023-01-23T19:07:24.806Z,23.42
2023-01-23T19:10:22.182Z,25.33
2023-01-23T19:13:29.946Z,24.52
2023-01-23T19:16:37.105Z,23.05
2023-01-23T19:20:21.524Z,23.88
2023-01-23T19:23:19.324Z,22.25
2023-01-23T19:26:05.939Z,22.88
2023-01-23T19:28:51.934Z,25.40
2023-01-23T19:31:45.361Z,23.80
2023-01-23T19:34:34.216Z,23.88
2023-01-23T19:37:20.092Z,24.30
2023-01-23T19:40:10.623Z,21.95
2023-01-23T19:43:13.248Z,21.98
2023-01-23T19:46:00.201Z,22.45
2023-01-23T19:48:46.389Z,21.98
2023-01-23T19:51:33.362Z,21.83
2023-01-23T19:54:19.161Z,22.20
2023-01-23T19:57:04.657Z,22.33
2023-01-23T19:59:50.095Z,23.23
2023-01-23T20:02:35.843Z,23.60
2023-01-23T20:05:23.301Z,24.58
2023-01-23T20:08:10.040Z,23.77
2023-01-23T20:10:55.621Z,22.23
2023-01-23T20:13:42.096Z,25.25
2023-01-23T20:16:27.548Z,24.83
2023-01-23T20:19:15.629Z,25.92
2023-01-23T20:22:01.140Z,28.02
2023-01-23T20:24:46.732Z,24.52
2023-01-23T20:27:32.755Z,29.50
2023-01-23T20:30:20.188Z,26.63
2023-01-23T20:33:07.444Z,24.85
2023-01-23T20:35:54.205Z,24.38
2023-01-23T20:38:40.621Z,26.45
2023-01-23T20:41:26.107Z,27.83
2023-01-23T20:44:12.856Z,26.58
2023-01-23T20:46:58.231Z,26.23
2023-01-23T20:49:43.916Z,29.10
2023-01-23T20:52:48.486Z,27.50
2023-01-23T20:55:34.124Z,26.35
2023-01-23T20:58:38.349Z,25.00
2023-01-23T21:01:28.077Z,24.20
2023-01-23T21:04:13.915Z,24.10
2023-01-23T21:07:00.097Z,24.98
2023-01-23T21:09:46.052Z,22.35
2023-01-23T21:12:31.974Z,23.17
2023-01-23T21:15:17.754Z,22.30
2023-01-23T21:18:03.618Z,22.95
2023-01-23T21:20:48.924Z,21.08
2023-01-23T21:23:36.074Z,20.98
2023-01-23T21:26:25.859Z,20.58
2023-01-23T21:29:11.770Z,21.33
2023-01-23T21:31:58.575Z,21.10
2023-01-23T21:34:44.388Z,22.30
2023-01-23T21:37:30.055Z,21.73
2023-01-23T21:40:16.595Z,22.48
2023-01-23T21:43:02.319Z,22.02
2023-01-23T21:45:47.748Z,23.38
2023-01-23T21:48:34.544Z,25.25
2023-01-23T21:51:23.555Z,23.33
2023-01-23T21:54:09.850Z,21.67
2023-01-23T21:56:55.584Z,20.67
2023-01-23T22:00:01.351Z,20.02
2023-01-23T22:02:46.947Z,19.05
2023-01-23T22:05:35.620Z,18.77
2023-01-23T22:08:21.071Z,19.08
2023-01-23T22:11:08.583Z,19.90
2023-01-23T22:13:54.543Z,20.02
2023-01-23T22:16:49.753Z,19.77
2023-01-23T22:19:36.184Z,18.73
2023-01-23T22:22:21.935Z,19.13
2023-01-23T22:25:08.783Z,19.38
2023-01-23T22:27:54.411Z,18.65
2023-01-23T22:30:39.818Z,19.95
2023-01-23T22:33:35.782Z,20.08
2023-01-23T22:36:25.887Z,19.25
2023-01-23T22:39:16.127Z,20.25
2023-01-23T22:42:05.218Z,18.95
2023-01-23T22:44:51.419Z,20.45
2023-01-23T22:47:37.164Z,20.02
2023-01-23T22:50:23.380Z,19.77
2023-01-23T22:53:09.196Z,22.63
2023-01-23T22:55:54.451Z,21.33
2023-01-23T22:58:40.422Z,21.92
2023-01-23T23:01:29.440Z,20.88
2023-01-23T23:04:14.876Z,22.88
2023-01-23T23:07:00.356Z,21.02
2023-01-23T23:09:46.119Z,21.23
2023-01-23T23:12:31.662Z,21.27
2023-01-23T23:15:17.465Z,22.45
2023-01-23T23:18:03.207Z,23.10
2023-01-23T23:20:48.782Z,21.08
2023-01-23T23:23:35.353Z,19.88
2023-01-23T23:26:21.065Z,18.95
2023-01-23T23:29:06.965Z,19.83
2023-01-23T23:31:52.788Z,20.27
2023-01-23T23:34:38.614Z,19.58
2023-01-23T23:37:24.443Z,19.35
2023-01-23T23:40:11.057Z,19.65
2023-01-23T23:42:56.653Z,19.83
2023-01-23T23:45:55.425Z,19.73
2023-01-23T23:48:43.716Z,20.52
2023-01-23T23:51:29.596Z,19.92
2023-01-23T23:54:14.895Z,20.33
2023-01-23T23:57:00.259Z,18.27
2023-01-23T23:59:45.897Z,19.05
